sensor_id;sensor_type;location;lat;lon;timestamp;pressure;altitude;pressure_sealevel;temperature;humidity
35892;BME280;21993;42.672;23.296;2023-08-06T00:01:44;93588.16;;;23.10;70.44
35892;BME280;21993;42.672;23.296;2023-08-06T00:04:09;93605.28;;;23.09;71.25
35892;BME280;21993;42.672;23.296;2023-08-06T00:06:35;93638.16;;;22.93;71.08
35892;BME280;21993;42.672;23.296;2023-08-06T00:09:00;93628.75;;;22.90;70.26
35892;BME280;21993;42.672;23.296;2023-08-06T00:11:27;93637.47;;;22.86;69.37
35892;BME280;21993;42.672;23.296;2023-08-06T00:13:53;93633.44;;;22.71;70.34
35892;BME280;21993;42.672;23.296;2023-08-06T00:16:18;93622.34;;;22.80;71.10
35892;BME280;21993;42.672;23.296;2023-08-06T00:18:43;93620.81;;;22.84;72.07
35892;BME280;21993;42.672;23.296;2023-08-06T00:21:09;93617.94;;;22.85;72.51
35892;BME280;21993;42.672;23.296;2023-08-06T00:23:34;93622.69;;;22.83;72.82
35892;BME280;21993;42.672;23.296;2023-08-06T00:26:00;93634.19;;;22.84;73.44
35892;BME280;21993;42.672;23.296;2023-08-06T00:28:25;93624.91;;;22.86;72.27
35892;BME280;21993;42.672;23.296;2023-08-06T00:30:54;93632.72;;;22.88;72.56
35892;BME280;21993;42.672;23.296;2023-08-06T00:33:21;93617.94;;;22.85;72.07
35892;BME280;21993;42.672;23.296;2023-08-06T00:35:46;93602.47;;;22.87;71.80
35892;BME280;21993;42.672;23.296;2023-08-06T00:38:12;93602.47;;;22.87;71.36
35892;BME280;21993;42.672;23.296;2023-08-06T00:40:37;93596.97;;;22.82;71.75
35892;BME280;21993;42.672;23.296;2023-08-06T00:43:03;93604.09;;;22.76;72.25
35892;BME280;21993;42.672;23.296;2023-08-06T00:45:29;93597.53;;;22.84;72.91
35892;BME280;21993;42.672;23.296;2023-08-06T00:47:56;93596.66;;;22.79;71.95
35892;BME280;21993;42.672;23.296;2023-08-06T00:50:21;93602.31;;;22.82;72.53
35892;BME280;21993;42.672;23.296;2023-08-06T00:52:48;93603.63;;;22.80;71.79
35892;BME280;21993;42.672;23.296;2023-08-06T00:55:15;93597.78;;;22.83;72.11
35892;BME280;21993;42.672;23.296;2023-08-06T00:57:41;93588.13;;;22.82;72.18
35892;BME280;21993;42.672;23.296;2023-08-06T01:00:07;93590.94;;;22.75;71.22
35892;BME280;21993;42.672;23.296;2023-08-06T01:02:32;93578.06;;;22.72;72.02
35892;BME280;21993;42.672;23.296;2023-08-06T01:04:58;93578.50;;;22.69;72.20
35892;BME280;21993;42.672;23.296;2023-08-06T01:15:54;93557.59;;;22.66;71.39
35892;BME280;21993;42.672;23.296;2023-08-06T01:18:22;93561.81;;;22.62;70.11
35892;BME280;21993;42.672;23.296;2023-08-06T01:20:47;93551.00;;;22.57;70.85
35892;BME280;21993;42.672;23.296;2023-08-06T01:23:15;93559.69;;;22.64;71.58
35892;BME280;21993;42.672;23.296;2023-08-06T01:26:05;93553.78;;;22.62;72.03
35892;BME280;21993;42.672;23.296;2023-08-06T01:31:32;93547.94;;;22.65;72.09
35892;BME280;21993;42.672;23.296;2023-08-06T01:34:01;93531.53;;;22.61;72.87
35892;BME280;21993;42.672;23.296;2023-08-06T01:36:28;93529.59;;;22.57;72.65
35892;BME280;21993;42.672;23.296;2023-08-06T01:38:54;93532.28;;;22.57;72.24
35892;BME280;21993;42.672;23.296;2023-08-06T01:41:19;93539.81;;;22.60;72.54
35892;BME280;21993;42.672;23.296;2023-08-06T01:43:45;93534.47;;;22.60;72.35
35892;BME280;21993;42.672;23.296;2023-08-06T01:46:10;93540.16;;;22.63;72.13
35892;BME280;21993;42.672;23.296;2023-08-06T01:48:35;93533.19;;;22.62;72.20
35892;BME280;21993;42.672;23.296;2023-08-06T01:51:03;93537.19;;;22.48;72.25
35892;BME280;21993;42.672;23.296;2023-08-06T01:53:28;93550.63;;;22.53;72.95
35892;BME280;21993;42.672;23.296;2023-08-06T01:55:54;93542.47;;;22.60;73.68
35892;BME280;21993;42.672;23.296;2023-08-06T01:58:19;93529.59;;;22.57;73.58
35892;BME280;21993;42.672;23.296;2023-08-06T02:00:45;93547.88;;;22.48;73.07
35892;BME280;21993;42.672;23.296;2023-08-06T02:03:10;93526.00;;;22.51;72.15
35892;BME280;21993;42.672;23.296;2023-08-06T02:05:35;93515.28;;;22.51;72.66
35892;BME280;21993;42.672;23.296;2023-08-06T02:08:01;93517.72;;;22.53;72.66
35892;BME280;21993;42.672;23.296;2023-08-06T02:10:26;93517.50;;;22.54;72.11
35892;BME280;21993;42.672;23.296;2023-08-06T02:12:52;93516.34;;;22.50;73.31
35892;BME280;21993;42.672;23.296;2023-08-06T02:15:17;93526.00;;;22.51;73.86
35892;BME280;21993;42.672;23.296;2023-08-06T02:17:43;93530.88;;;22.54;74.44
35892;BME280;21993;42.672;23.296;2023-08-06T02:20:08;93536.81;;;22.44;73.63
35892;BME280;21993;42.672;23.296;2023-08-06T02:22:34;93562.44;;;22.40;73.95
35892;BME280;21993;42.672;23.296;2023-08-06T02:24:59;93569.28;;;22.48;73.08
35892;BME280;21993;42.672;23.296;2023-08-06T02:27:25;93538.31;;;22.52;74.89
35892;BME280;21993;42.672;23.296;2023-08-06T02:29:50;93539.38;;;22.51;75.94
35892;BME280;21993;42.672;23.296;2023-08-06T02:32:16;93534.25;;;22.50;75.05
35892;BME280;21993;42.672;23.296;2023-08-06T02:34:41;93526.25;;;22.50;75.92
35892;BME280;21993;42.672;23.296;2023-08-06T02:37:07;93531.03;;;22.47;75.39
35892;BME280;21993;42.672;23.296;2023-08-06T02:39:32;93558.81;;;22.46;74.75
35892;BME280;21993;42.672;23.296;2023-08-06T02:41:59;93567.78;;;22.40;74.73
35892;BME280;21993;42.672;23.296;2023-08-06T02:44:27;93580.78;;;22.48;74.99
35892;BME280;21993;42.672;23.296;2023-08-06T02:46:52;93566.50;;;22.43;74.63
35892;BME280;21993;42.672;23.296;2023-08-06T02:49:18;93559.06;;;22.45;73.48
35892;BME280;21993;42.672;23.296;2023-08-06T02:51:45;93542.78;;;22.46;74.94
35892;BME280;21993;42.672;23.296;2023-08-06T02:54:10;93516.84;;;22.47;75.40
35892;BME280;21993;42.672;23.296;2023-08-06T02:56:36;93506.94;;;22.47;74.58
35892;BME280;21993;42.672;23.296;2023-08-06T02:59:01;93501.34;;;22.49;74.33
35892;BME280;21993;42.672;23.296;2023-08-06T03:01:26;93496.34;;;22.53;74.74
35892;BME280;21993;42.672;23.296;2023-08-06T03:03:53;93521.84;;;22.43;74.79
35892;BME280;21993;42.672;23.296;2023-08-06T03:06:19;93493.72;;;22.41;74.80
35892;BME280;21993;42.672;23.296;2023-08-06T03:08:44;93468.44;;;22.48;75.17
35892;BME280;21993;42.672;23.296;2023-08-06T03:11:09;93481.97;;;22.42;76.12
35892;BME280;21993;42.672;23.296;2023-08-06T03:13:35;93523.06;;;22.24;75.56
35892;BME280;21993;42.672;23.296;2023-08-06T03:16:00;93531.72;;;22.43;75.25
35892;BME280;21993;42.672;23.296;2023-08-06T03:18:26;93510.91;;;22.45;75.15
35892;BME280;21993;42.672;23.296;2023-08-06T03:20:52;93470.88;;;22.50;75.00
35892;BME280;21993;42.672;23.296;2023-08-06T03:23:18;93459.47;;;22.55;76.14
35892;BME280;21993;42.672;23.296;2023-08-06T03:25:44;93486.25;;;22.43;75.59
35892;BME280;21993;42.672;23.296;2023-08-06T03:28:10;93496.16;;;22.42;75.52
35892;BME280;21993;42.672;23.296;2023-08-06T03:30:35;93508.25;;;22.45;75.52
35892;BME280;21993;42.672;23.296;2023-08-06T03:33:00;93516.03;;;22.46;74.94
35892;BME280;21993;42.672;23.296;2023-08-06T03:35:26;93549.19;;;22.34;75.21
35892;BME280;21993;42.672;23.296;2023-08-06T03:37:51;93536.66;;;22.23;76.02
35892;BME280;21993;42.672;23.296;2023-08-06T03:40:17;93533.50;;;22.26;75.21
35892;BME280;21993;42.672;23.296;2023-08-06T03:42:42;93534.19;;;22.33;75.41
35892;BME280;21993;42.672;23.296;2023-08-06T03:45:08;93543.03;;;22.33;76.10
35892;BME280;21993;42.672;23.296;2023-08-06T03:47:34;93529.66;;;22.33;76.21
35892;BME280;21993;42.672;23.296;2023-08-06T03:49:59;93524.31;;;22.33;76.54
35892;BME280;21993;42.672;23.296;2023-08-06T03:52:25;93541.72;;;22.36;76.89
35892;BME280;21993;42.672;23.296;2023-08-06T03:54:50;93539.53;;;22.33;76.86
35892;BME280;21993;42.672;23.296;2023-08-06T03:57:15;93543.38;;;22.37;76.96
35892;BME280;21993;42.672;23.296;2023-08-06T03:59:41;93542.09;;;22.39;76.32
35892;BME280;21993;42.672;23.296;2023-08-06T04:02:06;93551.88;;;22.34;76.46
35892;BME280;21993;42.672;23.296;2023-08-06T04:04:32;93552.66;;;22.34;76.56
35892;BME280;21993;42.672;23.296;2023-08-06T04:06:57;93555.03;;;22.31;76.13
35892;BME280;21993;42.672;23.296;2023-08-06T04:09:22;93553.72;;;22.33;75.93
35892;BME280;21993;42.672;23.296;2023-08-06T04:11:48;93558.38;;;22.38;74.61
35892;BME280;21993;42.672;23.296;2023-08-06T04:14:13;93560.25;;;22.37;75.67
35892;BME280;21993;42.672;23.296;2023-08-06T04:16:39;93561.38;;;22.41;75.99
35892;BME280;21993;42.672;23.296;2023-08-06T04:19:04;93558.38;;;22.38;75.83
35892;BME280;21993;42.672;23.296;2023-08-06T04:21:30;93555.72;;;22.38;75.87
35892;BME280;21993;42.672;23.296;2023-08-06T04:23:56;93554.91;;;22.37;75.73
35892;BME280;21993;42.672;23.296;2023-08-06T04:26:21;93556.84;;;22.42;75.72
35892;BME280;21993;42.672;23.296;2023-08-06T04:28:47;93545.94;;;22.32;75.78
35892;BME280;21993;42.672;23.296;2023-08-06T04:31:14;93548.63;;;22.32;76.29
35892;BME280;21993;42.672;23.296;2023-08-06T04:33:39;93553.47;;;22.35;76.30
35892;BME280;21993;42.672;23.296;2023-08-06T04:36:05;93532.22;;;22.40;74.42
35892;BME280;21993;42.672;23.296;2023-08-06T04:38:30;93532.91;;;22.35;73.82
35892;BME280;21993;42.672;23.296;2023-08-06T04:40:56;93523.81;;;22.36;74.64
35892;BME280;21993;42.672;23.296;2023-08-06T04:43:21;93519.88;;;22.39;75.03
35892;BME280;21993;42.672;23.296;2023-08-06T04:45:50;93518.84;;;22.40;75.76
35892;BME280;21993;42.672;23.296;2023-08-06T04:48:16;93498.50;;;22.39;77.06
35892;BME280;21993;42.672;23.296;2023-08-06T04:50:46;93488.13;;;22.42;76.78
35892;BME280;21993;42.672;23.296;2023-08-06T04:53:12;93491.03;;;22.41;76.93
35892;BME280;21993;42.672;23.296;2023-08-06T04:55:38;93486.75;;;22.40;76.67
35892;BME280;21993;42.672;23.296;2023-08-06T04:58:03;93480.09;;;22.42;76.11
35892;BME280;21993;42.672;23.296;2023-08-06T05:00:29;93463.25;;;22.42;76.37
35892;BME280;21993;42.672;23.296;2023-08-06T05:02:54;93460.00;;;22.40;76.27
35892;BME280;21993;42.672;23.296;2023-08-06T05:05:20;93472.31;;;22.41;76.71
35892;BME280;21993;42.672;23.296;2023-08-06T05:07:48;93473.69;;;22.43;77.05
35892;BME280;21993;42.672;23.296;2023-08-06T05:10:14;93473.94;;;22.42;76.71
35892;BME280;21993;42.672;23.296;2023-08-06T05:12:40;93475.91;;;22.46;76.33
35892;BME280;21993;42.672;23.296;2023-08-06T05:15:06;93473.81;;;22.48;76.97
35892;BME280;21993;42.672;23.296;2023-08-06T05:17:31;93478.41;;;22.53;76.88
35892;BME280;21993;42.672;23.296;2023-08-06T05:19:57;93480.28;;;22.53;76.91
35892;BME280;21993;42.672;23.296;2023-08-06T05:22:22;93477.72;;;22.58;76.78
35892;BME280;21993;42.672;23.296;2023-08-06T05:24:47;93477.66;;;22.69;77.49
35892;BME280;21993;42.672;23.296;2023-08-06T05:27:13;93484.06;;;22.68;76.58
35892;BME280;21993;42.672;23.296;2023-08-06T05:29:38;93478.97;;;22.84;76.21
35892;BME280;21993;42.672;23.296;2023-08-06T05:32:04;93482.09;;;22.92;75.51
35892;BME280;21993;42.672;23.296;2023-08-06T05:34:29;93478.13;;;22.95;75.63
35892;BME280;21993;42.672;23.296;2023-08-06T05:36:55;93479.53;;;22.97;75.64
35892;BME280;21993;42.672;23.296;2023-08-06T05:39:20;93471.09;;;23.06;76.05
35892;BME280;21993;42.672;23.296;2023-08-06T05:41:46;93468.47;;;22.94;75.65
35892;BME280;21993;42.672;23.296;2023-08-06T05:44:11;93467.69;;;23.10;75.87
35892;BME280;21993;42.672;23.296;2023-08-06T05:46:36;93464.03;;;23.16;75.91
35892;BME280;21993;42.672;23.296;2023-08-06T05:49:02;93464.19;;;23.26;75.04
35892;BME280;21993;42.672;23.296;2023-08-06T05:51:27;93469.88;;;23.30;75.09
35892;BME280;21993;42.672;23.296;2023-08-06T05:53:53;93481.00;;;23.39;72.86
35892;BME280;21993;42.672;23.296;2023-08-06T05:56:19;93482.63;;;23.40;72.90
35892;BME280;21993;42.672;23.296;2023-08-06T05:58:44;93491.53;;;23.45;72.30
35892;BME280;21993;42.672;23.296;2023-08-06T06:01:11;93493.91;;;23.42;71.97
35892;BME280;21993;42.672;23.296;2023-08-06T06:03:37;93502.25;;;23.45;70.72
35892;BME280;21993;42.672;23.296;2023-08-06T06:06:02;93504.72;;;23.64;68.51
35892;BME280;21993;42.672;23.296;2023-08-06T06:08:28;93503.66;;;23.65;68.39
35892;BME280;21993;42.672;23.296;2023-08-06T06:10:54;93502.84;;;23.64;68.53
35892;BME280;21993;42.672;23.296;2023-08-06T06:13:19;93499.09;;;23.65;68.15
35892;BME280;21993;42.672;23.296;2023-08-06T06:15:46;93506.38;;;23.86;66.70
35892;BME280;21993;42.672;23.296;2023-08-06T06:18:13;93512.72;;;23.80;67.42
35892;BME280;21993;42.672;23.296;2023-08-06T06:20:38;93512.63;;;23.92;67.80
35892;BME280;21993;42.672;23.296;2023-08-06T06:23:04;93525.44;;;24.07;66.83
35892;BME280;21993;42.672;23.296;2023-08-06T06:25:29;93526.06;;;24.14;66.07
35892;BME280;21993;42.672;23.296;2023-08-06T06:27:54;93529.59;;;24.20;64.97
35892;BME280;21993;42.672;23.296;2023-08-06T06:30:20;93538.63;;;24.30;62.99
35892;BME280;21993;42.672;23.296;2023-08-06T06:32:45;93536.41;;;24.27;62.99
35892;BME280;21993;42.672;23.296;2023-08-06T06:35:12;93536.97;;;24.29;63.59
35892;BME280;21993;42.672;23.296;2023-08-06T06:37:37;93544.41;;;24.39;63.75
35892;BME280;21993;42.672;23.296;2023-08-06T06:40:03;93547.63;;;24.41;63.58
35892;BME280;21993;42.672;23.296;2023-08-06T06:42:29;93557.84;;;24.44;63.37
35892;BME280;21993;42.672;23.296;2023-08-06T06:44:54;93563.56;;;24.48;63.16
35892;BME280;21993;42.672;23.296;2023-08-06T06:47:20;93566.97;;;24.43;63.12
35892;BME280;21993;42.672;23.296;2023-08-06T06:49:45;93575.78;;;24.38;63.17
35892;BME280;21993;42.672;23.296;2023-08-06T06:52:10;93570.88;;;24.35;62.83
35892;BME280;21993;42.672;23.296;2023-08-06T06:54:36;93572.84;;;24.40;61.91
35892;BME280;21993;42.672;23.296;2023-08-06T06:57:02;93574.88;;;24.33;61.58
35892;BME280;21993;42.672;23.296;2023-08-06T06:59:27;93583.75;;;24.17;63.37
35892;BME280;21993;42.672;23.296;2023-08-06T07:01:53;93587.00;;;24.19;63.04
35892;BME280;21993;42.672;23.296;2023-08-06T07:04:18;93589.25;;;24.27;63.22
35892;BME280;21993;42.672;23.296;2023-08-06T07:06:44;93585.44;;;24.23;62.68
35892;BME280;21993;42.672;23.296;2023-08-06T07:09:09;93594.72;;;24.32;62.51
35892;BME280;21993;42.672;23.296;2023-08-06T07:11:35;93590.56;;;24.41;62.19
35892;BME280;21993;42.672;23.296;2023-08-06T07:14:00;93593.88;;;24.48;61.67
35892;BME280;21993;42.672;23.296;2023-08-06T07:16:26;93596.97;;;24.62;60.21
35892;BME280;21993;42.672;23.296;2023-08-06T07:18:53;93600.44;;;24.57;60.21
35892;BME280;21993;42.672;23.296;2023-08-06T07:21:19;93599.13;;;24.60;60.03
35892;BME280;21993;42.672;23.296;2023-08-06T07:23:45;93602.50;;;24.72;59.11
35892;BME280;21993;42.672;23.296;2023-08-06T07:26:10;93596.81;;;24.68;58.77
35892;BME280;21993;42.672;23.296;2023-08-06T07:28:36;93597.34;;;24.70;58.14
35892;BME280;21993;42.672;23.296;2023-08-06T07:31:03;93606.44;;;24.64;59.14
35892;BME280;21993;42.672;23.296;2023-08-06T07:33:28;93595.63;;;24.81;58.22
35892;BME280;21993;42.672;23.296;2023-08-06T07:35:54;93594.38;;;24.89;56.82
35892;BME280;21993;42.672;23.296;2023-08-06T07:38:19;93588.78;;;24.95;57.13
35892;BME280;21993;42.672;23.296;2023-08-06T07:40:45;93591.78;;;25.21;55.63
35892;BME280;21993;42.672;23.296;2023-08-06T07:43:10;93586.19;;;25.22;55.60
35892;BME280;21993;42.672;23.296;2023-08-06T07:45:36;93587.00;;;25.23;55.10
35892;BME280;21993;42.672;23.296;2023-08-06T07:48:02;93574.31;;;25.18;55.13
35892;BME280;21993;42.672;23.296;2023-08-06T07:50:28;93583.16;;;25.19;55.47
35892;BME280;21993;42.672;23.296;2023-08-06T07:52:53;93593.91;;;25.19;55.97
35892;BME280;21993;42.672;23.296;2023-08-06T07:55:19;93583.94;;;25.41;54.50
35892;BME280;21993;42.672;23.296;2023-08-06T07:57:44;93584.88;;;25.30;55.73
35892;BME280;21993;42.672;23.296;2023-08-06T08:00:10;93594.13;;;25.39;54.94
35892;BME280;21993;42.672;23.296;2023-08-06T08:02:35;93581.53;;;25.45;55.34
35892;BME280;21993;42.672;23.296;2023-08-06T08:05:01;93580.25;;;25.52;54.36
35892;BME280;21993;42.672;23.296;2023-08-06T08:07:26;93578.19;;;25.60;54.05
35892;BME280;21993;42.672;23.296;2023-08-06T08:09:54;93573.16;;;25.68;53.98
35892;BME280;21993;42.672;23.296;2023-08-06T08:12:19;93583.47;;;25.76;53.85
35892;BME280;21993;42.672;23.296;2023-08-06T08:14:45;93583.00;;;25.85;52.89
35892;BME280;21993;42.672;23.296;2023-08-06T08:17:11;93576.78;;;25.84;53.03
35892;BME280;21993;42.672;23.296;2023-08-06T08:19:37;93581.56;;;26.09;51.86
35892;BME280;21993;42.672;23.296;2023-08-06T08:22:02;93579.81;;;25.93;52.83
35892;BME280;21993;42.672;23.296;2023-08-06T08:24:28;93577.16;;;25.98;52.18
35892;BME280;21993;42.672;23.296;2023-08-06T08:26:55;93587.69;;;25.99;52.72
35892;BME280;21993;42.672;23.296;2023-08-06T08:29:21;93584.72;;;26.01;51.94
35892;BME280;21993;42.672;23.296;2023-08-06T08:31:47;93579.66;;;26.09;51.70
35892;BME280;21993;42.672;23.296;2023-08-06T08:34:18;93583.09;;;26.00;52.58
35892;BME280;21993;42.672;23.296;2023-08-06T08:36:43;93583.72;;;26.12;52.09
35892;BME280;21993;42.672;23.296;2023-08-06T08:39:12;93575.47;;;26.29;52.97
35892;BME280;21993;42.672;23.296;2023-08-06T08:41:38;93577.13;;;26.35;53.13
35892;BME280;21993;42.672;23.296;2023-08-06T08:44:09;93570.63;;;26.31;53.93
35892;BME280;21993;42.672;23.296;2023-08-06T08:46:37;93578.81;;;26.41;53.25
35892;BME280;21993;42.672;23.296;2023-08-06T08:49:03;93577.78;;;26.52;53.02
35892;BME280;21993;42.672;23.296;2023-08-06T08:51:30;93571.88;;;26.55;53.29
35892;BME280;21993;42.672;23.296;2023-08-06T08:53:55;93557.09;;;26.63;53.06
35892;BME280;21993;42.672;23.296;2023-08-06T08:56:24;93561.97;;;26.66;52.18
35892;BME280;21993;42.672;23.296;2023-08-06T08:58:50;93560.06;;;26.61;52.08
35892;BME280;21993;42.672;23.296;2023-08-06T09:01:18;93550.41;;;26.65;50.68
35892;BME280;21993;42.672;23.296;2023-08-06T09:03:44;93554.41;;;26.63;50.62
35892;BME280;21993;42.672;23.296;2023-08-06T09:06:11;93560.09;;;26.72;51.14
35892;BME280;21993;42.672;23.296;2023-08-06T09:08:41;93556.91;;;26.75;51.32
35892;BME280;21993;42.672;23.296;2023-08-06T09:11:09;93557.69;;;26.75;51.89
35892;BME280;21993;42.672;23.296;2023-08-06T09:13:37;93545.81;;;26.66;52.94
35892;BME280;21993;42.672;23.296;2023-08-06T09:16:03;93547.09;;;26.53;52.62
35892;BME280;21993;42.672;23.296;2023-08-06T09:18:29;93553.28;;;26.49;52.96
35892;BME280;21993;42.672;23.296;2023-08-06T09:20:58;93536.94;;;26.65;51.07
35892;BME280;21993;42.672;23.296;2023-08-06T09:23:31;93544.47;;;26.69;50.41
35892;BME280;21993;42.672;23.296;2023-08-06T09:25:57;93535.56;;;26.63;50.92
35892;BME280;21993;42.672;23.296;2023-08-06T09:28:23;93538.22;;;26.53;51.57
35892;BME280;21993;42.672;23.296;2023-08-06T09:30:50;93534.22;;;26.60;51.06
35892;BME280;21993;42.672;23.296;2023-08-06T09:33:18;93537.22;;;26.69;50.62
35892;BME280;21993;42.672;23.296;2023-08-06T09:35:46;93534.25;;;26.65;49.56
35892;BME280;21993;42.672;23.296;2023-08-06T09:38:11;93524.56;;;26.70;49.88
35892;BME280;21993;42.672;23.296;2023-08-06T09:40:38;93520.53;;;26.77;48.98
35892;BME280;21993;42.672;23.296;2023-08-06T09:43:03;93514.09;;;26.88;47.21
35892;BME280;21993;42.672;23.296;2023-08-06T09:45:32;93508.72;;;26.99;46.89
35892;BME280;21993;42.672;23.296;2023-08-06T09:47:59;93521.44;;;27.03;47.21
35892;BME280;21993;42.672;23.296;2023-08-06T09:50:35;93520.09;;;27.06;47.35
35892;BME280;21993;42.672;23.296;2023-08-06T09:53:02;93521.72;;;27.07;47.83
35892;BME280;21993;42.672;23.296;2023-08-06T09:55:28;93529.81;;;27.22;47.37
35892;BME280;21993;42.672;23.296;2023-08-06T09:57:54;93516.34;;;27.22;47.79
35892;BME280;21993;42.672;23.296;2023-08-06T10:00:20;93521.75;;;27.27;46.11
35892;BME280;21993;42.672;23.296;2023-08-06T10:02:46;93534.16;;;27.33;45.55
35892;BME280;21993;42.672;23.296;2023-08-06T10:05:12;93527.69;;;27.34;46.08
35892;BME280;21993;42.672;23.296;2023-08-06T10:07:38;93542.78;;;27.40;45.71
35892;BME280;21993;42.672;23.296;2023-08-06T10:10:05;93549.28;;;27.49;45.13
35892;BME280;21993;42.672;23.296;2023-08-06T10:12:45;93546.59;;;27.49;45.31
35892;BME280;21993;42.672;23.296;2023-08-06T10:15:14;93549.28;;;27.55;44.79
35892;BME280;21993;42.672;23.296;2023-08-06T10:17:42;93541.97;;;27.40;45.60
35892;BME280;21993;42.672;23.296;2023-08-06T10:20:09;93538.47;;;27.34;45.48
35892;BME280;21993;42.672;23.296;2023-08-06T10:22:35;93532.28;;;27.39;45.46
35892;BME280;21993;42.672;23.296;2023-08-06T10:25:01;93534.69;;;27.40;44.79
35892;BME280;21993;42.672;23.296;2023-08-06T10:27:39;93536.84;;;27.48;44.29
35892;BME280;21993;42.672;23.296;2023-08-06T10:30:24;93547.63;;;27.48;44.30
35892;BME280;21993;42.672;23.296;2023-08-06T10:32:51;93545.75;;;27.39;43.77
35892;BME280;21993;42.672;23.296;2023-08-06T10:38:04;93547.63;;;27.38;45.48
35892;BME280;21993;42.672;23.296;2023-08-06T10:40:31;93551.13;;;27.29;45.79
35892;BME280;21993;42.672;23.296;2023-08-06T10:43:04;93561.13;;;27.43;45.99
35892;BME280;21993;42.672;23.296;2023-08-06T10:45:34;93559.53;;;27.42;46.47
35892;BME280;21993;42.672;23.296;2023-08-06T10:48:01;93561.66;;;27.45;46.69
35892;BME280;21993;42.672;23.296;2023-08-06T10:50:26;93560.59;;;27.52;47.24
35892;BME280;21993;42.672;23.296;2023-08-06T10:52:52;93570.31;;;27.53;46.56
35892;BME280;21993;42.672;23.296;2023-08-06T10:55:23;93571.09;;;27.48;46.70
35892;BME280;21993;42.672;23.296;2023-08-06T10:57:50;93577.59;;;27.42;47.58
35892;BME280;21993;42.672;23.296;2023-08-06T11:00:15;93584.31;;;27.44;47.36
35892;BME280;21993;42.672;23.296;2023-08-06T11:02:41;93577.28;;;27.38;48.05
35892;BME280;21993;42.672;23.296;2023-08-06T11:05:10;93580.81;;;27.44;47.38
35892;BME280;21993;42.672;23.296;2023-08-06T11:07:36;93586.47;;;27.42;47.31
35892;BME280;21993;42.672;23.296;2023-08-06T11:10:09;93586.75;;;27.46;47.23
35892;BME280;21993;42.672;23.296;2023-08-06T11:12:35;93584.34;;;27.49;47.35
35892;BME280;21993;42.672;23.296;2023-08-06T11:15:02;93588.63;;;27.45;47.76
35892;BME280;21993;42.672;23.296;2023-08-06T11:17:29;93591.88;;;27.53;48.87
35892;BME280;21993;42.672;23.296;2023-08-06T11:19:55;93611.00;;;27.56;49.02
35892;BME280;21993;42.672;23.296;2023-08-06T11:22:21;93623.41;;;27.57;52.71
35892;BME280;21993;42.672;23.296;2023-08-06T11:24:48;93622.59;;;27.46;55.39
35892;BME280;21993;42.672;23.296;2023-08-06T11:27:14;93616.38;;;27.26;56.05
35892;BME280;21993;42.672;23.296;2023-08-06T11:29:41;93611.75;;;27.21;55.60
35892;BME280;21993;42.672;23.296;2023-08-06T11:32:08;93605.53;;;27.10;57.38
35892;BME280;21993;42.672;23.296;2023-08-06T11:34:33;93618.91;;;26.95;56.97
35892;BME280;21993;42.672;23.296;2023-08-06T11:36:59;93609.16;;;26.79;57.21
35892;BME280;21993;42.672;23.296;2023-08-06T11:39:24;93606.94;;;26.71;59.13
35892;BME280;21993;42.672;23.296;2023-08-06T11:41:50;93611.75;;;26.63;59.05
35892;BME280;21993;42.672;23.296;2023-08-06T11:44:19;93601.25;;;26.62;61.15
35892;BME280;21993;42.672;23.296;2023-08-06T11:46:54;93595.28;;;26.55;56.56
35892;BME280;21993;42.672;23.296;2023-08-06T11:54:42;93599.00;;;26.44;58.78
35892;BME280;21993;42.672;23.296;2023-08-06T11:57:08;93594.44;;;26.44;61.00
35892;BME280;21993;42.672;23.296;2023-08-06T11:59:33;93592.50;;;26.40;62.50
35892;BME280;21993;42.672;23.296;2023-08-06T12:02:03;93578.75;;;26.36;62.07
35892;BME280;21993;42.672;23.296;2023-08-06T12:04:31;93582.78;;;26.33;59.15
35892;BME280;21993;42.672;23.296;2023-08-06T12:07:04;93573.75;;;26.50;60.63
35892;BME280;21993;42.672;23.296;2023-08-06T12:09:30;93585.50;;;26.38;59.71
35892;BME280;21993;42.672;23.296;2023-08-06T12:11:55;93574.53;;;26.45;55.72
35892;BME280;21993;42.672;23.296;2023-08-06T12:14:21;93570.97;;;26.40;58.17
35892;BME280;21993;42.672;23.296;2023-08-06T12:16:46;93574.78;;;26.44;58.26
35892;BME280;21993;42.672;23.296;2023-08-06T12:19:11;93573.97;;;26.48;56.15
35892;BME280;21993;42.672;23.296;2023-08-06T12:21:37;93567.34;;;26.61;54.71
35892;BME280;21993;42.672;23.296;2023-08-06T12:24:02;93568.72;;;26.69;53.13
35892;BME280;21993;42.672;23.296;2023-08-06T12:26:28;93572.47;;;26.73;51.44
35892;BME280;21993;42.672;23.296;2023-08-06T12:28:53;93570.66;;;26.88;51.61
35892;BME280;21993;42.672;23.296;2023-08-06T12:31:20;93576.88;;;26.94;49.62
35892;BME280;21993;42.672;23.296;2023-08-06T12:33:45;93561.50;;;26.89;50.46
35892;BME280;21993;42.672;23.296;2023-08-06T12:36:11;93564.50;;;26.93;49.41
35892;BME280;21993;42.672;23.296;2023-08-06T12:38:36;93578.75;;;26.88;48.28
35892;BME280;21993;42.672;23.296;2023-08-06T12:41:01;93578.72;;;26.78;49.66
35892;BME280;21993;42.672;23.296;2023-08-06T12:43:27;93575.47;;;26.76;49.17
35892;BME280;21993;42.672;23.296;2023-08-06T12:45:53;93565.78;;;26.75;50.22
35892;BME280;21993;42.672;23.296;2023-08-06T12:48:18;93564.41;;;26.73;49.19
35892;BME280;21993;42.672;23.296;2023-08-06T12:50:44;93559.59;;;26.75;49.40
35892;BME280;21993;42.672;23.296;2023-08-06T12:53:09;93564.47;;;26.83;49.72
35892;BME280;21993;42.672;23.296;2023-08-06T12:55:35;93560.44;;;26.90;49.02
35892;BME280;21993;42.672;23.296;2023-08-06T12:58:00;93562.56;;;26.78;48.67
35892;BME280;21993;42.672;23.296;2023-08-06T13:00:26;93563.91;;;26.81;49.58
35892;BME280;21993;42.672;23.296;2023-08-06T13:02:51;93567.19;;;26.93;49.09
35892;BME280;21993;42.672;23.296;2023-08-06T13:05:17;93560.19;;;26.92;48.22